sensor_id;sensor_type;location;lat;lon;timestamp;pressure;altitude;pressure_sealevel;temperature;humidity
19624;BME280;9959;49.798;9.928;2023-07-13T00:00:22;99409.75;;;20.42;55.89
19624;BME280;9959;49.798;9.928;2023-07-13T00:02:49;99403.72;;;20.40;55.50
19624;BME280;9959;49.798;9.928;2023-07-13T00:05:16;99405.63;;;20.35;55.64
19624;BME280;9959;49.798;9.928;2023-07-13T00:07:43;99414.13;;;20.33;55.56
19624;BME280;9959;49.798;9.928;2023-07-13T00:10:10;99428.66;;;20.28;55.68
19624;BME280;9959;49.798;9.928;2023-07-13T00:12:37;99431.66;;;20.27;55.80
19624;BME280;9959;49.798;9.928;2023-07-13T00:15:20;99444.50;;;20.32;54.75
19624;BME280;9959;49.798;9.928;2023-07-13T00:17:51;99439.31;;;20.25;56.08
19624;BME280;9959;49.798;9.928;2023-07-13T00:20:19;99437.78;;;20.04;56.59
19624;BME280;9959;49.798;9.928;2023-07-13T00:22:49;99420.88;;;19.97;57.13
19624;BME280;9959;49.798;9.928;2023-07-13T00:25:16;99429.63;;;19.93;57.38
19624;BME280;9959;49.798;9.928;2023-07-13T00:27:43;99429.59;;;19.99;57.14
19624;BME280;9959;49.798;9.928;2023-07-13T00:30:11;99435.94;;;19.79;57.74
19624;BME280;9959;49.798;9.928;2023-07-13T00:32:38;99430.75;;;19.82;57.53
19624;BME280;9959;49.798;9.928;2023-07-13T00:35:05;99423.09;;;19.74;57.85
19624;BME280;9959;49.798;9.928;2023-07-13T00:37:33;99422.00;;;19.75;57.92
19624;BME280;9959;49.798;9.928;2023-07-13T00:40:03;99422.00;;;19.70;58.06
19624;BME280;9959;49.798;9.928;2023-07-13T00:42:31;99424.25;;;19.58;58.10
19624;BME280;9959;49.798;9.928;2023-07-13T00:47:43;99422.59;;;19.57;57.96
19624;BME280;9959;49.798;9.928;2023-07-13T00:50:12;99423.16;;;19.54;57.55
19624;BME280;9959;49.798;9.928;2023-07-13T00:52:45;99422.88;;;19.50;57.78
19624;BME280;9959;49.798;9.928;2023-07-13T00:55:14;99416.84;;;19.43;58.48
19624;BME280;9959;49.798;9.928;2023-07-13T00:57:43;99428.63;;;19.39;58.55
19624;BME280;9959;49.798;9.928;2023-07-13T01:00:11;99429.16;;;19.41;58.63
19624;BME280;9959;49.798;9.928;2023-07-13T01:02:41;99428.34;;;19.35;58.96
19624;BME280;9959;49.798;9.928;2023-07-13T01:05:20;99430.53;;;19.23;58.57
19624;BME280;9959;49.798;9.928;2023-07-13T01:07:49;99431.06;;;19.25;59.23
19624;BME280;9959;49.798;9.928;2023-07-13T01:10:18;99439.00;;;19.11;59.41
19624;BME280;9959;49.798;9.928;2023-07-13T01:12:47;99437.09;;;19.12;59.92
19624;BME280;9959;49.798;9.928;2023-07-13T01:15:40;99438.44;;;19.04;59.66
19624;BME280;9959;49.798;9.928;2023-07-13T01:18:12;99446.63;;;18.99;59.84
19624;BME280;9959;49.798;9.928;2023-07-13T01:20:40;99442.28;;;19.03;59.20
19624;BME280;9959;49.798;9.928;2023-07-13T01:23:11;99440.34;;;18.93;59.66
19624;BME280;9959;49.798;9.928;2023-07-13T01:25:39;99445.53;;;18.90;59.64
19624;BME280;9959;49.798;9.928;2023-07-13T01:28:08;99448.81;;;18.82;60.09
19624;BME280;9959;49.798;9.928;2023-07-13T01:30:36;99451.53;;;18.77;60.14
19624;BME280;9959;49.798;9.928;2023-07-13T01:33:07;99451.81;;;18.80;60.00
19624;BME280;9959;49.798;9.928;2023-07-13T01:35:35;99457.25;;;18.75;60.48
19624;BME280;9959;49.798;9.928;2023-07-13T01:38:02;99451.19;;;18.63;61.11
19624;BME280;9959;49.798;9.928;2023-07-13T01:40:29;99453.66;;;18.65;60.95
19624;BME280;9959;49.798;9.928;2023-07-13T01:42:57;99456.94;;;18.67;60.37
19624;BME280;9959;49.798;9.928;2023-07-13T01:45:24;99455.84;;;18.63;60.41
19624;BME280;9959;49.798;9.928;2023-07-13T01:47:51;99456.66;;;18.63;60.57
19624;BME280;9959;49.798;9.928;2023-07-13T01:50:18;99455.00;;;18.57;61.42
19624;BME280;9959;49.798;9.928;2023-07-13T01:52:45;99459.13;;;18.59;60.58
19624;BME280;9959;49.798;9.928;2023-07-13T01:55:12;99457.44;;;18.53;60.79
19624;BME280;9959;49.798;9.928;2023-07-13T01:57:40;99462.88;;;18.48;60.64
19624;BME280;9959;49.798;9.928;2023-07-13T02:00:09;99469.41;;;18.47;60.66
19624;BME280;9959;49.798;9.928;2023-07-13T02:02:36;99478.41;;;18.43;60.82
19624;BME280;9959;49.798;9.928;2023-07-13T02:05:04;99472.69;;;18.49;60.11
19624;BME280;9959;49.798;9.928;2023-07-13T02:07:31;99479.22;;;18.43;60.75
19624;BME280;9959;49.798;9.928;2023-07-13T02:09:57;99485.19;;;18.30;60.60
19624;BME280;9959;49.798;9.928;2023-07-13T02:12:27;99486.78;;;18.26;61.27
19624;BME280;9959;49.798;9.928;2023-07-13T02:14:54;99472.34;;;18.25;60.39
19624;BME280;9959;49.798;9.928;2023-07-13T02:17:21;99480.78;;;18.24;60.52
19624;BME280;9959;49.798;9.928;2023-07-13T02:19:48;99480.50;;;18.20;60.75
19624;BME280;9959;49.798;9.928;2023-07-13T02:22:15;99485.13;;;18.20;60.21
19624;BME280;9959;49.798;9.928;2023-07-13T02:24:42;99490.50;;;18.10;61.03
19624;BME280;9959;49.798;9.928;2023-07-13T02:27:09;99484.50;;;18.03;61.13
19624;BME280;9959;49.798;9.928;2023-07-13T02:29:35;99480.69;;;18.09;60.46
19624;BME280;9959;49.798;9.928;2023-07-13T02:32:03;99492.97;;;18.11;61.20
19624;BME280;9959;49.798;9.928;2023-07-13T02:34:30;99500.59;;;18.04;61.39
19624;BME280;9959;49.798;9.928;2023-07-13T02:36:58;99501.94;;;18.02;60.73
19624;BME280;9959;49.798;9.928;2023-07-13T02:39:25;99498.63;;;17.95;61.09
19624;BME280;9959;49.798;9.928;2023-07-13T02:41:52;99499.66;;;17.88;61.09
19624;BME280;9959;49.798;9.928;2023-07-13T02:44:20;99502.34;;;17.83;61.92
19624;BME280;9959;49.798;9.928;2023-07-13T02:46:46;99496.59;;;17.80;62.06
19624;BME280;9959;49.798;9.928;2023-07-13T02:49:13;99506.63;;;17.69;62.81
19624;BME280;9959;49.798;9.928;2023-07-13T02:51:40;99501.22;;;17.79;62.41
19624;BME280;9959;49.798;9.928;2023-07-13T02:54:07;99502.81;;;17.70;62.12
19624;BME280;9959;49.798;9.928;2023-07-13T02:56:35;99508.16;;;17.60;62.79
19624;BME280;9959;49.798;9.928;2023-07-13T02:59:02;99505.34;;;17.77;62.34
19624;BME280;9959;49.798;9.928;2023-07-13T03:01:29;99511.34;;;17.52;63.01
19624;BME280;9959;49.798;9.928;2023-07-13T03:03:56;99505.63;;;17.48;63.14
19624;BME280;9959;49.798;9.928;2023-07-13T03:06:23;99503.69;;;17.44;64.30
19624;BME280;9959;49.798;9.928;2023-07-13T03:08:51;99503.91;;;17.37;63.89
19624;BME280;9959;49.798;9.928;2023-07-13T03:11:19;99502.47;;;17.30;64.08
19624;BME280;9959;49.798;9.928;2023-07-13T03:13:47;99503.69;;;17.44;64.03
19624;BME280;9959;49.798;9.928;2023-07-13T03:16:14;99504.63;;;17.27;64.41
19624;BME280;9959;49.798;9.928;2023-07-13T03:18:46;99511.16;;;17.26;64.74
19624;BME280;9959;49.798;9.928;2023-07-13T03:21:13;99518.66;;;17.14;64.85
19624;BME280;9959;49.798;9.928;2023-07-13T03:23:40;99522.47;;;17.13;65.60
19624;BME280;9959;49.798;9.928;2023-07-13T03:26:10;99521.91;;;17.11;65.05
19624;BME280;9959;49.798;9.928;2023-07-13T03:28:37;99524.16;;;17.19;64.92
19624;BME280;9959;49.798;9.928;2023-07-13T03:31:10;99535.66;;;17.26;64.54
19624;BME280;9959;49.798;9.928;2023-07-13T03:33:37;99532.59;;;17.18;65.33
19624;BME280;9959;49.798;9.928;2023-07-13T03:36:06;99542.22;;;17.04;65.97
19624;BME280;9959;49.798;9.928;2023-07-13T03:38:33;99549.31;;;17.05;66.35
19624;BME280;9959;49.798;9.928;2023-07-13T03:41:00;99552.81;;;17.00;66.89
19624;BME280;9959;49.798;9.928;2023-07-13T03:43:27;99559.94;;;17.06;66.62
19624;BME280;9959;49.798;9.928;2023-07-13T03:45:54;99565.97;;;17.08;65.77
19624;BME280;9959;49.798;9.928;2023-07-13T03:48:22;99565.84;;;16.98;66.24
19624;BME280;9959;49.798;9.928;2023-07-13T03:50:49;99565.78;;;17.15;65.76
19624;BME280;9959;49.798;9.928;2023-07-13T03:53:16;99573.56;;;17.06;65.34
19624;BME280;9959;49.798;9.928;2023-07-13T03:55:42;99578.25;;;17.11;66.76
19624;BME280;9959;49.798;9.928;2023-07-13T03:58:33;99577.38;;;17.05;65.75
19624;BME280;9959;49.798;9.928;2023-07-13T04:01:01;99585.53;;;17.05;65.74
19624;BME280;9959;49.798;9.928;2023-07-13T04:03:29;99586.72;;;17.14;65.29
19624;BME280;9959;49.798;9.928;2023-07-13T04:06:00;99588.00;;;17.07;65.15
19624;BME280;9959;49.798;9.928;2023-07-13T04:08:29;99589.50;;;17.19;64.75
19624;BME280;9959;49.798;9.928;2023-07-13T04:10:57;99588.88;;;17.12;65.11
19624;BME280;9959;49.798;9.928;2023-07-13T04:13:25;99591.16;;;17.20;64.50
19624;BME280;9959;49.798;9.928;2023-07-13T04:15:53;99591.16;;;17.20;64.59
19624;BME280;9959;49.798;9.928;2023-07-13T04:18:21;99588.69;;;17.19;63.92
19624;BME280;9959;49.798;9.928;2023-07-13T04:20:48;99595.56;;;17.26;64.29
19624;BME280;9959;49.798;9.928;2023-07-13T04:23:16;99590.09;;;17.26;63.78
19624;BME280;9959;49.798;9.928;2023-07-13T04:25:47;99596.38;;;17.27;63.58
19624;BME280;9959;49.798;9.928;2023-07-13T04:28:16;99605.53;;;17.43;63.57
19624;BME280;9959;49.798;9.928;2023-07-13T04:30:44;99610.97;;;17.43;62.73
19624;BME280;9959;49.798;9.928;2023-07-13T04:33:11;99609.38;;;17.47;62.68
19624;BME280;9959;49.798;9.928;2023-07-13T04:35:38;99610.03;;;17.59;62.49
19624;BME280;9959;49.798;9.928;2023-07-13T04:38:05;99611.81;;;17.70;61.63
19624;BME280;9959;49.798;9.928;2023-07-13T04:40:32;99608.16;;;17.91;61.77
19624;BME280;9959;49.798;9.928;2023-07-13T04:42:59;99614.13;;;17.88;60.75
19624;BME280;9959;49.798;9.928;2023-07-13T04:45:26;99615.69;;;17.79;60.75
19624;BME280;9959;49.798;9.928;2023-07-13T04:47:53;99624.72;;;17.85;60.59
19624;BME280;9959;49.798;9.928;2023-07-13T04:50:20;99618.97;;;17.81;60.30
19624;BME280;9959;49.798;9.928;2023-07-13T04:52:50;99620.41;;;17.89;59.97
19624;BME280;9959;49.798;9.928;2023-07-13T04:55:19;99622.34;;;17.93;60.36
19624;BME280;9959;49.798;9.928;2023-07-13T04:57:46;99626.69;;;17.89;59.85
19624;BME280;9959;49.798;9.928;2023-07-13T05:00:14;99631.81;;;17.86;60.58
19624;BME280;9959;49.798;9.928;2023-07-13T05:02:44;99632.03;;;17.79;60.28
19624;BME280;9959;49.798;9.928;2023-07-13T05:05:13;99634.25;;;17.82;59.91
19624;BME280;9959;49.798;9.928;2023-07-13T05:07:40;99632.03;;;17.79;60.17
19624;BME280;9959;49.798;9.928;2023-07-13T05:10:07;99625.50;;;17.75;60.21
19624;BME280;9959;49.798;9.928;2023-07-13T05:12:34;99633.66;;;17.75;61.34
19624;BME280;9959;49.798;9.928;2023-07-13T05:15:02;99637.41;;;17.69;61.36
19624;BME280;9959;49.798;9.928;2023-07-13T05:17:29;99634.19;;;17.72;61.53
19624;BME280;9959;49.798;9.928;2023-07-13T05:19:56;99639.47;;;17.62;62.87
19624;BME280;9959;49.798;9.928;2023-07-13T05:22:23;99642.09;;;17.74;62.40
19624;BME280;9959;49.798;9.928;2023-07-13T05:24:50;99641.38;;;17.62;62.22
19624;BME280;9959;49.798;9.928;2023-07-13T05:27:17;99641.06;;;17.58;62.42
19624;BME280;9959;49.798;9.928;2023-07-13T05:29:44;99647.88;;;17.82;61.70
19624;BME280;9959;49.798;9.928;2023-07-13T05:32:11;99652.28;;;17.88;61.52
19624;BME280;9959;49.798;9.928;2023-07-13T05:34:38;99641.97;;;17.90;61.29
19624;BME280;9959;49.798;9.928;2023-07-13T05:37:05;99637.78;;;18.15;60.44
19624;BME280;9959;49.798;9.928;2023-07-13T05:39:32;99646.00;;;18.20;59.59
19624;BME280;9959;49.798;9.928;2023-07-13T05:41:59;99659.47;;;18.00;60.34
19624;BME280;9959;49.798;9.928;2023-07-13T05:44:26;99649.06;;;17.91;59.69
19624;BME280;9959;49.798;9.928;2023-07-13T05:46:53;99650.66;;;17.87;60.00
19624;BME280;9959;49.798;9.928;2023-07-13T05:49:21;99653.06;;;18.16;58.92
19624;BME280;9959;49.798;9.928;2023-07-13T05:51:48;99653.66;;;18.23;59.32
19624;BME280;9959;49.798;9.928;2023-07-13T05:54:15;99656.34;;;18.18;58.92
19624;BME280;9959;49.798;9.928;2023-07-13T05:56:42;99663.50;;;18.24;58.75
19624;BME280;9959;49.798;9.928;2023-07-13T05:59:09;99660.72;;;18.19;58.75
19624;BME280;9959;49.798;9.928;2023-07-13T06:01:35;99661.25;;;18.16;58.17
19624;BME280;9959;49.798;9.928;2023-07-13T06:04:02;99671.16;;;18.27;58.19
19624;BME280;9959;49.798;9.928;2023-07-13T06:06:30;99668.47;;;18.37;57.61
19624;BME280;9959;49.798;9.928;2023-07-13T06:08:56;99663.66;;;18.49;58.14
19624;BME280;9959;49.798;9.928;2023-07-13T06:11:25;99665.44;;;18.34;57.36
19624;BME280;9959;49.798;9.928;2023-07-13T06:13:52;99665.41;;;18.66;56.83
19624;BME280;9959;49.798;9.928;2023-07-13T06:16:19;99663.88;;;18.80;56.58
19624;BME280;9959;49.798;9.928;2023-07-13T06:18:46;99669.88;;;18.77;56.47
19624;BME280;9959;49.798;9.928;2023-07-13T06:21:16;99670.97;;;18.81;55.53
19624;BME280;9959;49.798;9.928;2023-07-13T06:23:45;99673.19;;;18.89;55.04
19624;BME280;9959;49.798;9.928;2023-07-13T06:26:14;99679.19;;;18.86;55.05
19624;BME280;9959;49.798;9.928;2023-07-13T06:28:41;99668.28;;;18.91;54.14
19624;BME280;9959;49.798;9.928;2023-07-13T06:31:10;99670.97;;;18.81;54.21
19624;BME280;9959;49.798;9.928;2023-07-13T06:33:38;99668.66;;;19.10;54.58
19624;BME280;9959;49.798;9.928;2023-07-13T06:36:06;99670.47;;;19.56;52.67
19624;BME280;9959;49.798;9.928;2023-07-13T06:38:34;99667.22;;;19.85;52.14
19624;BME280;9959;49.798;9.928;2023-07-13T06:41:01;99672.81;;;19.27;53.21
19624;BME280;9959;49.798;9.928;2023-07-13T06:43:28;99677.97;;;19.19;52.80
19624;BME280;9959;49.798;9.928;2023-07-13T06:45:56;99675.84;;;19.36;52.34
19624;BME280;9959;49.798;9.928;2023-07-13T06:48:24;99676.69;;;19.42;50.94
19624;BME280;9959;49.798;9.928;2023-07-13T06:50:51;99672.41;;;19.66;50.89
19624;BME280;9959;49.798;9.928;2023-07-13T06:53:19;99684.41;;;19.60;50.71
19624;BME280;9959;49.798;9.928;2023-07-13T06:55:46;99671.84;;;19.59;50.70
19624;BME280;9959;49.798;9.928;2023-07-13T06:58:15;99682.25;;;19.67;51.04
19624;BME280;9959;49.798;9.928;2023-07-13T07:00:43;99680.59;;;19.61;50.41
19624;BME280;9959;49.798;9.928;2023-07-13T07:03:10;99684.47;;;20.16;48.06
19624;BME280;9959;49.798;9.928;2023-07-13T07:05:37;99689.94;;;20.36;47.22
19624;BME280;9959;49.798;9.928;2023-07-13T07:08:04;99691.59;;;20.42;46.70
19624;BME280;9959;49.798;9.928;2023-07-13T07:10:32;99695.41;;;20.31;46.20
19624;BME280;9959;49.798;9.928;2023-07-13T07:13:00;99686.09;;;20.63;45.33
19624;BME280;9959;49.798;9.928;2023-07-13T07:15:27;99694.50;;;20.86;44.56
19624;BME280;9959;49.798;9.928;2023-07-13T07:17:54;99700.72;;;21.12;44.73
19624;BME280;9959;49.798;9.928;2023-07-13T07:20:21;99702.44;;;21.03;44.94
19624;BME280;9959;49.798;9.928;2023-07-13T07:22:48;99700.63;;;21.43;44.10
19624;BME280;9959;49.798;9.928;2023-07-13T07:25:15;99702.03;;;21.35;44.64
19624;BME280;9959;49.798;9.928;2023-07-13T07:27:43;99696.47;;;21.55;44.11
19624;BME280;9959;49.798;9.928;2023-07-13T07:30:13;99695.50;;;21.26;43.97
19624;BME280;9959;49.798;9.928;2023-07-13T07:32:43;99696.66;;;21.64;44.45
19624;BME280;9959;49.798;9.928;2023-07-13T07:35:13;99708.31;;;21.41;44.33
19624;BME280;9959;49.798;9.928;2023-07-13T07:37:39;99704.44;;;21.47;43.79
19624;BME280;9959;49.798;9.928;2023-07-13T07:40:09;99705.81;;;21.93;42.33
19624;BME280;9959;49.798;9.928;2023-07-13T07:42:39;99715.75;;;22.57;41.96
19624;BME280;9959;49.798;9.928;2023-07-13T07:45:06;99692.38;;;22.31;40.85
19624;BME280;9959;49.798;9.928;2023-07-13T07:47:33;99701.28;;;22.76;40.73
19624;BME280;9959;49.798;9.928;2023-07-13T07:50:00;99710.91;;;22.73;41.23
19624;BME280;9959;49.798;9.928;2023-07-13T07:52:27;99707.19;;;22.93;40.84
19624;BME280;9959;49.798;9.928;2023-07-13T07:54:54;99700.06;;;23.58;39.30
19624;BME280;9959;49.798;9.928;2023-07-13T07:57:24;99697.94;;;22.84;39.90
19624;BME280;9959;49.798;9.928;2023-07-13T07:59:53;99684.53;;;23.86;37.33
19624;BME280;9959;49.798;9.928;2023-07-13T08:02:25;99694.44;;;23.45;38.72
19624;BME280;9959;49.798;9.928;2023-07-13T08:04:55;99698.22;;;23.06;40.18
19624;BME280;9959;49.798;9.928;2023-07-13T08:07:24;99708.88;;;23.13;37.89
19624;BME280;9959;49.798;9.928;2023-07-13T08:09:54;99704.09;;;23.66;37.24
19624;BME280;9959;49.798;9.928;2023-07-13T08:12:21;99711.84;;;23.16;37.24
19624;BME280;9959;49.798;9.928;2023-07-13T08:14:51;99698.94;;;22.64;38.71
19624;BME280;9959;49.798;9.928;2023-07-13T08:17:24;99702.28;;;23.94;36.05
19624;BME280;9959;49.798;9.928;2023-07-13T08:19:52;99707.81;;;23.75;37.36
19624;BME280;9959;49.798;9.928;2023-07-13T08:22:19;99708.97;;;24.58;36.14
19624;BME280;9959;49.798;9.928;2023-07-13T08:24:46;99708.03;;;25.22;34.39
19624;BME280;9959;49.798;9.928;2023-07-13T08:27:13;99706.00;;;25.01;34.19
19624;BME280;9959;49.798;9.928;2023-07-13T08:29:41;99702.13;;;24.55;34.80
19624;BME280;9959;49.798;9.928;2023-07-13T08:32:08;99704.53;;;24.76;34.70
19624;BME280;9959;49.798;9.928;2023-07-13T08:34:38;99708.91;;;23.93;36.22
19624;BME280;9959;49.798;9.928;2023-07-13T08:37:05;99714.75;;;24.24;36.33
19624;BME280;9959;49.798;9.928;2023-07-13T08:39:33;99698.41;;;24.33;36.08
19624;BME280;9959;49.798;9.928;2023-07-13T08:42:14;99700.31;;;24.64;35.37
19624;BME280;9959;49.798;9.928;2023-07-13T08:47:47;99709.13;;;24.34;36.05
19624;BME280;9959;49.798;9.928;2023-07-13T08:50:18;99717.75;;;25.06;34.82
19624;BME280;9959;49.798;9.928;2023-07-13T08:52:46;99714.94;;;24.92;34.89
19624;BME280;9959;49.798;9.928;2023-07-13T08:55:26;99723.31;;;24.22;35.95
19624;BME280;9959;49.798;9.928;2023-07-13T08:58:12;99711.47;;;24.87;35.36
19624;BME280;9959;49.798;9.928;2023-07-13T09:04:07;99707.94;;;24.54;35.39
19624;BME280;9959;49.798;9.928;2023-07-13T09:09:37;99702.69;;;25.53;34.61
19624;BME280;9959;49.798;9.928;2023-07-13T09:12:19;99699.53;;;23.56;37.84
19624;BME280;9959;49.798;9.928;2023-07-13T09:14:52;99696.78;;;25.19;34.86
19624;BME280;9959;49.798;9.928;2023-07-13T09:17:40;99706.00;;;25.14;35.34
19624;BME280;9959;49.798;9.928;2023-07-13T09:20:21;99697.81;;;25.37;34.97
19624;BME280;9959;49.798;9.928;2023-07-13T09:22:51;99708.25;;;25.40;34.38
19624;BME280;9959;49.798;9.928;2023-07-13T09:28:02;99693.22;;;25.95;34.08
19624;BME280;9959;49.798;9.928;2023-07-13T09:33:25;99702.75;;;24.66;35.61
19624;BME280;9959;49.798;9.928;2023-07-13T09:35:56;99704.25;;;25.95;33.73
19624;BME280;9959;49.798;9.928;2023-07-13T09:38:28;99701.59;;;26.80;32.28
19624;BME280;9959;49.798;9.928;2023-07-13T09:41:17;99693.63;;;25.25;34.06
19624;BME280;9959;49.798;9.928;2023-07-13T09:44:12;99709.25;;;24.24;35.03
19624;BME280;9959;49.798;9.928;2023-07-13T09:46:45;99707.53;;;25.20;33.77
19624;BME280;9959;49.798;9.928;2023-07-13T09:49:12;99700.28;;;26.46;31.37
19624;BME280;9959;49.798;9.928;2023-07-13T09:51:43;99689.63;;;24.31;35.41
19624;BME280;9959;49.798;9.928;2023-07-13T09:54:29;99690.59;;;24.53;34.84
19624;BME280;9959;49.798;9.928;2023-07-13T09:56:57;99706.47;;;23.91;36.26
19624;BME280;9959;49.798;9.928;2023-07-13T09:59:29;99718.28;;;23.92;36.68
19624;BME280;9959;49.798;9.928;2023-07-13T10:01:56;99711.59;;;23.98;36.56
19624;BME280;9959;49.798;9.928;2023-07-13T10:04:41;99709.34;;;24.84;35.22
19624;BME280;9959;49.798;9.928;2023-07-13T10:07:12;99708.59;;;25.74;34.11
19624;BME280;9959;49.798;9.928;2023-07-13T10:09:59;99703.91;;;25.47;34.28
19624;BME280;9959;49.798;9.928;2023-07-13T10:12:35;99705.50;;;26.12;33.91
19624;BME280;9959;49.798;9.928;2023-07-13T10:15:07;99702.59;;;26.30;33.03
19624;BME280;9959;49.798;9.928;2023-07-13T10:17:50;99708.69;;;26.27;33.35
19624;BME280;9959;49.798;9.928;2023-07-13T10:20:20;99715.50;;;25.08;35.43
19624;BME280;9959;49.798;9.928;2023-07-13T10:22:55;99720.16;;;25.49;34.13
19624;BME280;9959;49.798;9.928;2023-07-13T10:25:29;99704.53;;;24.76;35.35
19624;BME280;9959;49.798;9.928;2023-07-13T10:28:04;99711.16;;;25.57;34.69
19624;BME280;9959;49.798;9.928;2023-07-13T10:30:40;99715.19;;;24.96;35.54
19624;BME280;9959;49.798;9.928;2023-07-13T10:33:11;99707.31;;;25.03;35.26
19624;BME280;9959;49.798;9.928;2023-07-13T10:35:42;99712.91;;;24.84;35.05
19624;BME280;9959;49.798;9.928;2023-07-13T10:38:22;99705.91;;;25.96;33.37
19624;BME280;9959;49.798;9.928;2023-07-13T10:43:25;99706.59;;;25.66;33.56
19624;BME280;9959;49.798;9.928;2023-07-13T10:45:53;99699.81;;;25.72;33.24
19624;BME280;9959;49.798;9.928;2023-07-13T10:48:23;99690.56;;;25.90;33.18
19624;BME280;9959;49.798;9.928;2023-07-13T10:50:53;99702.81;;;26.20;32.32
19624;BME280;9959;49.798;9.928;2023-07-13T10:53:22;99704.34;;;25.41;33.48
19624;BME280;9959;49.798;9.928;2023-07-13T10:55:58;99705.09;;;25.82;32.90
19624;BME280;9959;49.798;9.928;2023-07-13T10:58:38;99698.47;;;26.06;31.09
19624;BME280;9959;49.798;9.928;2023-07-13T11:03:56;99702.84;;;25.84;31.78
19624;BME280;9959;49.798;9.928;2023-07-13T11:11:35;99694.63;;;26.51;31.73
19624;BME280;9959;49.798;9.928;2023-07-13T11:14:05;99698.81;;;27.11;30.52
19624;BME280;9959;49.798;9.928;2023-07-13T11:16:50;99691.50;;;27.06;30.83
19624;BME280;9959;49.798;9.928;2023-07-13T11:24:57;99685.19;;;28.87;27.71
19624;BME280;9959;49.798;9.928;2023-07-13T11:27:35;99685.78;;;27.77;29.13
19624;BME280;9959;49.798;9.928;2023-07-13T11:32:50;99695.63;;;26.33;31.68
19624;BME280;9959;49.798;9.928;2023-07-13T11:35:25;99708.25;;;25.40;32.98
19624;BME280;9959;49.798;9.928;2023-07-13T11:37:53;99686.44;;;27.08;30.99
19624;BME280;9959;49.798;9.928;2023-07-13T11:40:22;99682.56;;;26.47;31.29
19624;BME280;9959;49.798;9.928;2023-07-13T11:42:59;99678.03;;;26.51;31.29
19624;BME280;9959;49.798;9.928;2023-07-13T11:45:28;99686.75;;;26.22;32.65
19624;BME280;9959;49.798;9.928;2023-07-13T11:48:29;99708.00;;;26.00;32.68
19624;BME280;9959;49.798;9.928;2023-07-13T11:51:01;99692.94;;;26.28;32.14
19624;BME280;9959;49.798;9.928;2023-07-13T11:53:38;99692.59;;;27.53;30.35
19624;BME280;9959;49.798;9.928;2023-07-13T11:56:06;99680.91;;;28.00;29.46
19624;BME280;9959;49.798;9.928;2023-07-13T11:58:33;99686.13;;;28.01;29.70
19624;BME280;9959;49.798;9.928;2023-07-13T12:01:02;99683.03;;;27.03;30.90
19624;BME280;9959;49.798;9.928;2023-07-13T12:03:32;99681.97;;;25.92;32.26
19624;BME280;9959;49.798;9.928;2023-07-13T12:06:06;99697.34;;;26.07;32.61
19624;BME280;9959;49.798;9.928;2023-07-13T12:08:47;99681.88;;;26.73;31.58
19624;BME280;9959;49.798;9.928;2023-07-13T12:11:17;99695.72;;;26.28;32.00
19624;BME280;9959;49.798;9.928;2023-07-13T12:13:45;99696.09;;;26.13;32.68
19624;BME280;9959;49.798;9.928;2023-07-13T12:16:31;99697.50;;;26.24;32.15
19624;BME280;9959;49.798;9.928;2023-07-13T12:19:01;99699.50;;;26.32;31.11
19624;BME280;9959;49.798;9.928;2023-07-13T12:21:33;99697.97;;;26.71;30.76
19624;BME280;9959;49.798;9.928;2023-07-13T12:24:01;99698.63;;;25.65;32.45
19624;BME280;9959;49.798;9.928;2023-07-13T12:26:31;99697.13;;;25.81;32.22
19624;BME280;9959;49.798;9.928;2023-07-13T12:29:01;99698.44;;;26.19;32.04
19624;BME280;9959;49.798;9.928;2023-07-13T12:31:43;99697.97;;;26.71;31.00
19624;BME280;9959;49.798;9.928;2023-07-13T12:34:15;99700.72;;;26.71;31.28
19624;BME280;9959;49.798;9.928;2023-07-13T12:36:54;99700.66;;;26.93;30.69
19624;BME280;9959;49.798;9.928;2023-07-13T12:44:41;99699.75;;;27.54;29.31
19624;BME280;9959;49.798;9.928;2023-07-13T12:47:13;99702.25;;;27.73;29.64
19624;BME280;9959;49.798;9.928;2023-07-13T12:49:48;99719.19;;;27.97;28.90
19624;BME280;9959;49.798;9.928;2023-07-13T12:52:22;99698.22;;;28.78;28.00
19624;BME280;9959;49.798;9.928;2023-07-13T12:54:59;99689.56;;;28.79;28.06
19624;BME280;9959;49.798;9.928;2023-07-13T12:57:38;99702.84;;;28.56;28.16
19624;BME280;9959;49.798;9.928;2023-07-13T13:02:49;99705.16;;;27.94;28.96
19624;BME280;9959;49.798;9.928;2023-07-13T13:05:17;99703.34;;;27.63;30.25
19624;BME280;9959;49.798;9.928;2023-07-13T13:07:44;99703.56;;;28.10;28.97
19624;BME280;9959;49.798;9.928;2023-07-13T13:10:14;99708.00;;;27.28;30.23
19624;BME280;9959;49.798;9.928;2023-07-13T13:12:41;99691.00;;;26.82;30.88
19624;BME280;9959;49.798;9.928;2023-07-13T13:15:10;99707.47;;;27.18;30.51
19624;BME280;9959;49.798;9.928;2023-07-13T13:17:38;99709.06;;;27.10;30.77
19624;BME280;9959;49.798;9.928;2023-07-13T13:20:17;99705.63;;;26.07;32.37
19624;BME280;9959;49.798;9.928;2023-07-13T13:22:45;99709.53;;;26.28;31.98
19624;BME280;9959;49.798;9.928;2023-07-13T13:25:13;99714.41;;;26.09;32.46
19624;BME280;9959;49.798;9.928;2023-07-13T13:27:42;99715.25;;;26.09;32.55
19624;BME280;9959;49.798;9.928;2023-07-13T13:30:14;99709.38;;;25.88;32.61
19624;BME280;9959;49.798;9.928;2023-07-13T13:32:44;99709.09;;;26.88;31.60
19624;BME280;9959;49.798;9.928;2023-07-13T13:35:16;99699.59;;;27.03;31.73
19624;BME280;9959;49.798;9.928;2023-07-13T13:37:44;99704.31;;;26.71;31.91
19624;BME280;9959;49.798;9.928;2023-07-13T13:40:19;99711.44;;;26.19;32.41
19624;BME280;9959;49.798;9.928;2023-07-13T13:42:46;99694.19;;;26.67;31.34
19624;BME280;9959;49.798;9.928;2023-07-13T13:45:13;99698.19;;;26.52;32.24
19624;BME280;9959;49.798;9.928;2023-07-13T13:47:40;99699.47;;;27.16;30.91
19624;BME280;9959;49.798;9.928;2023-07-13T13:50:21;99713.56;;;27.46;30.62
19624;BME280;9959;49.798;9.928;2023-07-13T13:52:51;99703.88;;;26.86;31.13
19624;BME280;9959;49.798;9.928;2023-07-13T13:55:20;99699.00;;;26.30;32.59
19624;BME280;9959;49.798;9.928;2023-07-13T13:57:48;99705.19;;;26.89;31.32
19624;BME280;9959;49.798;9.928;2023-07-13T14:00:16;99704.53;;;26.30;32.22
19624;BME280;9959;49.798;9.928;2023-07-13T14:02:48;99702.88;;;26.74;31.28
19624;BME280;9959;49.798;9.928;2023-07-13T14:05:22;99697.31;;;27.53;30.25
19624;BME280;9959;49.798;9.928;2023-07-13T14:07:49;99697.84;;;28.41;29.15